Main page
METAR-TAF:

METAR-TAF

Airports :

Stony Rapids Airport

Stony Rapids, Saskatchewan, Canada

latitude: 59-15N, longitude: 105-50W, elevation: 250 m

Current weather observation

The report was made 26 minutes ago, at 21:00 UTC
Wind 10 kt from the East/Northeast with gusts up to 20 kt
Temperature 11°C
Humidity 47%
Pressure 1017 hPa
Visibility: 14.5 km
Clear sky

METAR: CYSF 192100Z AUTO 07010G20KT 9SM CLR 11/00 A3003 RMK SLP185

Time: 15:26 (21:26 UTC)

Forecast

The report was made 3 hours and 45 minutes ago, at 17:41 UTC
Forecast valid from 19 at 18 UTC to 20 at 06 UTC
Wind 10 kt from the East/Northeast with gusts up to 20 kt
Visibility: 10 km
Broken clouds at a height of 2500 ft
Temporary
from 19 at 18 UTC to 19 at 23 UTC
Scattered clouds at a height of 2500 ft
From 20 at 0300 UTC
Wind 10 kt from the East/Northeast
Visibility: 10 km
Overcast at a height of 2000 ft

TAF: CYSF 191741Z 1918/2006 07010G20KT P6SM BKN025 TEMPO 1918/1923 SCT025 FM200300 07010KT P6SM OVC020 RMK FCST BASED ON AUTO OBS. NXT FCST BY 200000Z

Weather observations and forecasts of more than 4000 airports (METAR and TAF reports).

The available stations are represented by yellow and red dots on the map.

Hover mouse over dot to see the name of the station.

Then click to see weather observations and forecasts.

To change the map : click on the green buttons with a black cross to zoom in, on the green button with a dash to zoom out, or on the green arrows for adjacent maps.


METAR-TAF: